University Oxford Airport Oxford US
ICAO: KUOX
IATA: UOX
Category: Medium
Scheduled Services: No

Elevation: 452 ft
TransAlt. 18000 ft.

Airport Communications:
AWOS 3:132.725
MEMPHIS CNTR:128.5
CTAF/UNICOM:123

KUOX Zoom In..

If you have problems with the map follow the link
https://www.worldairports.se/pages/airport.php?
ICAO=KUOX

Runways:

(A) RW 09 length 5600 ft width 100 ft
LOC 111.70 / hdg 90

(B) RW 27 length 5600 ft width 100 ft
LOC 111.70 / hdg 270

Location; KUOX
Day. 21 / Time. 18.35 Zulu
* Altimeter: 30.33
* Temperature: 14° c. 57.2°f.
* Wind from: VRB° Speed 06 kn with Gusts up to 12 kn.
Dewpoint: -00° c.
Visibility: 10 Statute Miles.
Clouds: Clear (automated report).

KUOX 211835Z AUTO VRB06G12KT 10SM CLR 14/M00 A3033 RMK AO2


Wind From VRB°
Speed 06 kn.

 
 
jpsmedia.com for Web Design worldairports.se 2018   terms of use